sensor_id;sensor_type;location;lat;lon;timestamp;P1;durP1;ratioP1;P2;durP2;ratioP2
12970;SDS011;6550;48.650;8.774;2023-06-22T00:01:25;8.50;;;5.40;;
12970;SDS011;6550;48.650;8.774;2023-06-22T00:03:55;6.93;;;5.07;;
12970;SDS011;6550;48.650;8.774;2023-06-22T00:06:26;7.75;;;5.45;;
12970;SDS011;6550;48.650;8.774;2023-06-22T00:08:56;10.53;;;5.07;;
12970;SDS011;6550;48.650;8.774;2023-06-22T00:11:23;9.50;;;5.93;;
12970;SDS011;6550;48.650;8.774;2023-06-22T00:13:50;11.13;;;5.40;;
12970;SDS011;6550;48.650;8.774;2023-06-22T00:16:17;9.50;;;5.60;;
12970;SDS011;6550;48.650;8.774;2023-06-22T00:18:44;8.00;;;5.10;;
12970;SDS011;6550;48.650;8.774;2023-06-22T00:21:13;7.23;;;5.00;;
12970;SDS011;6550;48.650;8.774;2023-06-22T00:23:45;10.67;;;5.50;;
12970;SDS011;6550;48.650;8.774;2023-06-22T00:26:14;10.73;;;5.80;;
12970;SDS011;6550;48.650;8.774;2023-06-22T00:28:41;8.90;;;4.70;;
12970;SDS011;6550;48.650;8.774;2023-06-22T00:31:08;11.10;;;5.10;;
12970;SDS011;6550;48.650;8.774;2023-06-22T00:33:38;11.23;;;5.47;;
12970;SDS011;6550;48.650;8.774;2023-06-22T00:36:09;5.67;;;5.10;;
12970;SDS011;6550;48.650;8.774;2023-06-22T00:38:42;8.87;;;5.03;;
12970;SDS011;6550;48.650;8.774;2023-06-22T00:41:09;9.07;;;5.47;;
12970;SDS011;6550;48.650;8.774;2023-06-22T00:43:36;12.27;;;5.50;;
12970;SDS011;6550;48.650;8.774;2023-06-22T00:46:07;10.95;;;6.15;;
12970;SDS011;6550;48.650;8.774;2023-06-22T00:48:36;5.60;;;5.07;;
12970;SDS011;6550;48.650;8.774;2023-06-22T00:51:03;8.37;;;5.30;;
12970;SDS011;6550;48.650;8.774;2023-06-22T00:53:32;7.03;;;5.27;;
12970;SDS011;6550;48.650;8.774;2023-06-22T00:56:01;6.70;;;5.20;;
12970;SDS011;6550;48.650;8.774;2023-06-22T00:58:31;11.97;;;5.50;;
12970;SDS011;6550;48.650;8.774;2023-06-22T01:01:01;9.37;;;5.67;;
12970;SDS011;6550;48.650;8.774;2023-06-22T01:03:30;9.27;;;5.40;;
12970;SDS011;6550;48.650;8.774;2023-06-22T01:06:05;6.50;;;5.43;;
12970;SDS011;6550;48.650;8.774;2023-06-22T01:08:46;8.03;;;4.83;;
12970;SDS011;6550;48.650;8.774;2023-06-22T01:11:39;5.60;;;5.00;;
12970;SDS011;6550;48.650;8.774;2023-06-22T01:14:14;7.18;;;6.03;;
12970;SDS011;6550;48.650;8.774;2023-06-22T01:16:46;7.03;;;5.67;;
12970;SDS011;6550;48.650;8.774;2023-06-22T01:21:46;7.73;;;5.80;;
12970;SDS011;6550;48.650;8.774;2023-06-22T01:24:26;12.33;;;5.63;;
12970;SDS011;6550;48.650;8.774;2023-06-22T01:29:57;9.43;;;5.50;;
12970;SDS011;6550;48.650;8.774;2023-06-22T01:32:32;5.87;;;5.23;;
12970;SDS011;6550;48.650;8.774;2023-06-22T01:35:03;7.43;;;5.50;;
12970;SDS011;6550;48.650;8.774;2023-06-22T01:37:34;8.77;;;5.37;;
12970;SDS011;6550;48.650;8.774;2023-06-22T01:40:03;10.50;;;5.20;;
12970;SDS011;6550;48.650;8.774;2023-06-22T01:42:34;7.13;;;5.40;;
12970;SDS011;6550;48.650;8.774;2023-06-22T01:45:04;11.57;;;5.60;;
12970;SDS011;6550;48.650;8.774;2023-06-22T01:47:33;9.73;;;5.70;;
12970;SDS011;6550;48.650;8.774;2023-06-22T01:50:00;9.07;;;5.50;;
12970;SDS011;6550;48.650;8.774;2023-06-22T01:52:27;10.97;;;5.40;;
12970;SDS011;6550;48.650;8.774;2023-06-22T01:54:54;7.47;;;5.23;;
12970;SDS011;6550;48.650;8.774;2023-06-22T01:57:24;8.83;;;5.53;;
12970;SDS011;6550;48.650;8.774;2023-06-22T02:00:00;9.25;;;5.18;;
12970;SDS011;6550;48.650;8.774;2023-06-22T02:02:43;9.27;;;5.20;;
12970;SDS011;6550;48.650;8.774;2023-06-22T02:05:22;10.50;;;5.50;;
12970;SDS011;6550;48.650;8.774;2023-06-22T02:08:08;7.90;;;5.13;;
12970;SDS011;6550;48.650;8.774;2023-06-22T02:10:45;10.10;;;5.87;;
12970;SDS011;6550;48.650;8.774;2023-06-22T02:13:19;13.30;;;5.73;;
12970;SDS011;6550;48.650;8.774;2023-06-22T02:15:46;8.07;;;5.20;;
12970;SDS011;6550;48.650;8.774;2023-06-22T02:18:14;13.60;;;5.93;;
12970;SDS011;6550;48.650;8.774;2023-06-22T02:20:41;7.57;;;5.87;;
12970;SDS011;6550;48.650;8.774;2023-06-22T02:23:08;7.70;;;5.50;;
12970;SDS011;6550;48.650;8.774;2023-06-22T02:25:35;12.53;;;5.60;;
12970;SDS011;6550;48.650;8.774;2023-06-22T02:28:02;8.97;;;5.43;;
12970;SDS011;6550;48.650;8.774;2023-06-22T02:30:29;11.37;;;4.93;;
12970;SDS011;6550;48.650;8.774;2023-06-22T02:32:56;10.70;;;5.77;;
12970;SDS011;6550;48.650;8.774;2023-06-22T02:35:26;12.88;;;5.70;;
12970;SDS011;6550;48.650;8.774;2023-06-22T02:38:02;15.43;;;5.37;;
12970;SDS011;6550;48.650;8.774;2023-06-22T02:40:29;8.37;;;5.63;;
12970;SDS011;6550;48.650;8.774;2023-06-22T02:42:57;8.47;;;5.20;;
12970;SDS011;6550;48.650;8.774;2023-06-22T02:45:29;14.23;;;5.30;;
12970;SDS011;6550;48.650;8.774;2023-06-22T02:47:56;11.53;;;5.33;;
12970;SDS011;6550;48.650;8.774;2023-06-22T02:50:23;12.73;;;5.40;;
12970;SDS011;6550;48.650;8.774;2023-06-22T02:52:52;12.80;;;5.30;;
12970;SDS011;6550;48.650;8.774;2023-06-22T02:55:19;7.17;;;4.70;;
12970;SDS011;6550;48.650;8.774;2023-06-22T02:57:49;9.17;;;4.93;;
12970;SDS011;6550;48.650;8.774;2023-06-22T03:00:19;16.70;;;5.30;;
12970;SDS011;6550;48.650;8.774;2023-06-22T03:02:46;12.63;;;5.10;;
12970;SDS011;6550;48.650;8.774;2023-06-22T03:05:14;12.23;;;4.97;;
12970;SDS011;6550;48.650;8.774;2023-06-22T03:07:44;10.90;;;5.17;;
12970;SDS011;6550;48.650;8.774;2023-06-22T03:10:12;12.07;;;4.93;;
12970;SDS011;6550;48.650;8.774;2023-06-22T03:12:40;11.40;;;5.40;;
12970;SDS011;6550;48.650;8.774;2023-06-22T03:15:08;10.43;;;5.03;;
12970;SDS011;6550;48.650;8.774;2023-06-22T03:17:41;8.80;;;5.27;;
12970;SDS011;6550;48.650;8.774;2023-06-22T03:20:10;9.80;;;5.30;;
12970;SDS011;6550;48.650;8.774;2023-06-22T03:22:42;11.87;;;5.47;;
12970;SDS011;6550;48.650;8.774;2023-06-22T03:25:10;13.37;;;5.53;;
12970;SDS011;6550;48.650;8.774;2023-06-22T03:27:42;19.17;;;5.90;;
12970;SDS011;6550;48.650;8.774;2023-06-22T03:30:14;14.65;;;5.45;;
12970;SDS011;6550;48.650;8.774;2023-06-22T03:32:41;12.40;;;5.43;;
12970;SDS011;6550;48.650;8.774;2023-06-22T03:35:09;14.07;;;5.30;;
12970;SDS011;6550;48.650;8.774;2023-06-22T03:37:39;8.97;;;5.10;;
12970;SDS011;6550;48.650;8.774;2023-06-22T03:40:08;12.43;;;5.22;;
12970;SDS011;6550;48.650;8.774;2023-06-22T03:42:37;9.67;;;4.97;;
12970;SDS011;6550;48.650;8.774;2023-06-22T03:45:07;7.07;;;4.97;;
12970;SDS011;6550;48.650;8.774;2023-06-22T03:47:34;12.60;;;5.23;;
12970;SDS011;6550;48.650;8.774;2023-06-22T03:50:01;10.93;;;5.13;;
12970;SDS011;6550;48.650;8.774;2023-06-22T03:52:29;12.90;;;5.07;;
12970;SDS011;6550;48.650;8.774;2023-06-22T03:54:56;5.97;;;4.50;;
12970;SDS011;6550;48.650;8.774;2023-06-22T03:57:28;11.43;;;4.80;;
12970;SDS011;6550;48.650;8.774;2023-06-22T03:59:57;8.07;;;4.67;;
12970;SDS011;6550;48.650;8.774;2023-06-22T04:02:26;9.88;;;5.80;;
12970;SDS011;6550;48.650;8.774;2023-06-22T04:04:53;11.63;;;5.37;;
12970;SDS011;6550;48.650;8.774;2023-06-22T04:07:20;17.77;;;5.40;;
12970;SDS011;6550;48.650;8.774;2023-06-22T04:09:47;6.70;;;5.30;;
12970;SDS011;6550;48.650;8.774;2023-06-22T04:12:14;11.48;;;5.57;;
12970;SDS011;6550;48.650;8.774;2023-06-22T04:14:40;8.10;;;5.13;;
12970;SDS011;6550;48.650;8.774;2023-06-22T04:17:07;9.17;;;5.10;;
12970;SDS011;6550;48.650;8.774;2023-06-22T04:19:36;9.37;;;5.17;;
12970;SDS011;6550;48.650;8.774;2023-06-22T04:22:03;9.67;;;5.03;;
12970;SDS011;6550;48.650;8.774;2023-06-22T04:24:30;10.27;;;5.03;;
12970;SDS011;6550;48.650;8.774;2023-06-22T04:26:59;10.13;;;5.30;;
12970;SDS011;6550;48.650;8.774;2023-06-22T04:29:29;9.23;;;5.40;;
12970;SDS011;6550;48.650;8.774;2023-06-22T04:31:57;7.07;;;5.10;;
12970;SDS011;6550;48.650;8.774;2023-06-22T04:34:31;10.57;;;6.47;;
12970;SDS011;6550;48.650;8.774;2023-06-22T04:37:03;11.43;;;6.27;;
12970;SDS011;6550;48.650;8.774;2023-06-22T04:39:30;5.80;;;4.90;;
12970;SDS011;6550;48.650;8.774;2023-06-22T04:42:01;11.37;;;6.70;;
12970;SDS011;6550;48.650;8.774;2023-06-22T04:44:30;8.63;;;6.13;;
12970;SDS011;6550;48.650;8.774;2023-06-22T04:46:58;6.93;;;5.30;;
12970;SDS011;6550;48.650;8.774;2023-06-22T04:49:30;7.80;;;5.67;;
12970;SDS011;6550;48.650;8.774;2023-06-22T04:52:11;10.43;;;5.50;;
12970;SDS011;6550;48.650;8.774;2023-06-22T04:54:39;14.27;;;5.67;;
12970;SDS011;6550;48.650;8.774;2023-06-22T04:57:13;8.53;;;5.53;;
12970;SDS011;6550;48.650;8.774;2023-06-22T04:59:41;7.67;;;5.33;;
12970;SDS011;6550;48.650;8.774;2023-06-22T05:02:08;10.47;;;5.50;;
12970;SDS011;6550;48.650;8.774;2023-06-22T05:04:35;7.43;;;4.90;;
12970;SDS011;6550;48.650;8.774;2023-06-22T05:07:05;9.17;;;5.90;;
12970;SDS011;6550;48.650;8.774;2023-06-22T05:09:33;8.80;;;5.37;;
12970;SDS011;6550;48.650;8.774;2023-06-22T05:12:02;8.67;;;6.00;;
12970;SDS011;6550;48.650;8.774;2023-06-22T05:14:35;10.67;;;6.00;;
12970;SDS011;6550;48.650;8.774;2023-06-22T05:17:01;10.80;;;6.23;;
12970;SDS011;6550;48.650;8.774;2023-06-22T05:19:30;10.30;;;5.97;;
12970;SDS011;6550;48.650;8.774;2023-06-22T05:22:00;8.50;;;5.53;;
12970;SDS011;6550;48.650;8.774;2023-06-22T05:24:27;6.43;;;5.80;;
12970;SDS011;6550;48.650;8.774;2023-06-22T05:26:54;10.03;;;6.10;;
12970;SDS011;6550;48.650;8.774;2023-06-22T05:29:21;10.00;;;5.97;;
12970;SDS011;6550;48.650;8.774;2023-06-22T05:31:50;8.00;;;5.43;;
12970;SDS011;6550;48.650;8.774;2023-06-22T05:34:19;7.87;;;5.50;;
12970;SDS011;6550;48.650;8.774;2023-06-22T05:36:46;7.63;;;6.00;;
12970;SDS011;6550;48.650;8.774;2023-06-22T05:39:13;8.20;;;5.77;;
12970;SDS011;6550;48.650;8.774;2023-06-22T05:41:41;7.40;;;6.10;;
12970;SDS011;6550;48.650;8.774;2023-06-22T05:44:11;7.57;;;5.90;;
12970;SDS011;6550;48.650;8.774;2023-06-22T05:46:42;10.80;;;5.43;;
12970;SDS011;6550;48.650;8.774;2023-06-22T05:49:14;8.33;;;5.97;;
12970;SDS011;6550;48.650;8.774;2023-06-22T05:51:42;6.50;;;5.17;;
12970;SDS011;6550;48.650;8.774;2023-06-22T05:54:11;9.13;;;5.47;;
12970;SDS011;6550;48.650;8.774;2023-06-22T05:56:44;8.50;;;5.50;;
12970;SDS011;6550;48.650;8.774;2023-06-22T05:59:11;10.40;;;5.20;;
12970;SDS011;6550;48.650;8.774;2023-06-22T06:01:38;10.52;;;5.70;;
12970;SDS011;6550;48.650;8.774;2023-06-22T06:04:07;13.93;;;5.03;;
12970;SDS011;6550;48.650;8.774;2023-06-22T06:06:37;5.10;;;4.60;;
12970;SDS011;6550;48.650;8.774;2023-06-22T06:09:06;8.03;;;5.37;;
12970;SDS011;6550;48.650;8.774;2023-06-22T06:11:35;11.17;;;4.93;;
12970;SDS011;6550;48.650;8.774;2023-06-22T06:14:04;7.27;;;5.00;;
12970;SDS011;6550;48.650;8.774;2023-06-22T06:16:33;8.83;;;5.93;;
12970;SDS011;6550;48.650;8.774;2023-06-22T06:19:01;5.57;;;5.07;;
12970;SDS011;6550;48.650;8.774;2023-06-22T06:21:30;8.00;;;4.63;;
12970;SDS011;6550;48.650;8.774;2023-06-22T06:23:57;10.27;;;5.37;;
12970;SDS011;6550;48.650;8.774;2023-06-22T06:26:26;9.43;;;4.87;;
12970;SDS011;6550;48.650;8.774;2023-06-22T06:28:59;6.13;;;4.40;;
12970;SDS011;6550;48.650;8.774;2023-06-22T06:31:26;8.37;;;4.43;;
12970;SDS011;6550;48.650;8.774;2023-06-22T06:33:56;9.13;;;5.20;;
12970;SDS011;6550;48.650;8.774;2023-06-22T06:36:25;7.57;;;4.87;;
12970;SDS011;6550;48.650;8.774;2023-06-22T06:38:52;6.53;;;5.03;;
12970;SDS011;6550;48.650;8.774;2023-06-22T06:41:21;6.77;;;4.53;;
12970;SDS011;6550;48.650;8.774;2023-06-22T06:43:51;14.47;;;5.13;;
12970;SDS011;6550;48.650;8.774;2023-06-22T06:46:20;10.17;;;4.67;;
12970;SDS011;6550;48.650;8.774;2023-06-22T06:48:51;7.07;;;4.63;;
12970;SDS011;6550;48.650;8.774;2023-06-22T06:51:18;6.17;;;4.17;;
12970;SDS011;6550;48.650;8.774;2023-06-22T06:53:48;8.27;;;4.27;;
12970;SDS011;6550;48.650;8.774;2023-06-22T06:56:15;12.47;;;4.37;;
12970;SDS011;6550;48.650;8.774;2023-06-22T06:58:44;5.40;;;3.87;;
12970;SDS011;6550;48.650;8.774;2023-06-22T07:01:14;9.47;;;4.47;;
12970;SDS011;6550;48.650;8.774;2023-06-22T07:03:41;4.37;;;3.43;;
12970;SDS011;6550;48.650;8.774;2023-06-22T07:06:10;7.13;;;4.03;;
12970;SDS011;6550;48.650;8.774;2023-06-22T07:08:37;7.00;;;3.87;;
12970;SDS011;6550;48.650;8.774;2023-06-22T07:11:06;11.90;;;4.60;;
12970;SDS011;6550;48.650;8.774;2023-06-22T07:13:33;5.80;;;3.27;;
12970;SDS011;6550;48.650;8.774;2023-06-22T07:15:59;6.63;;;4.20;;
12970;SDS011;6550;48.650;8.774;2023-06-22T07:18:26;11.00;;;4.20;;
12970;SDS011;6550;48.650;8.774;2023-06-22T07:20:53;7.73;;;4.00;;
12970;SDS011;6550;48.650;8.774;2023-06-22T07:23:20;8.07;;;4.00;;
12970;SDS011;6550;48.650;8.774;2023-06-22T07:25:47;6.60;;;4.00;;
12970;SDS011;6550;48.650;8.774;2023-06-22T07:28:16;7.17;;;3.80;;
12970;SDS011;6550;48.650;8.774;2023-06-22T07:30:45;7.60;;;3.90;;
12970;SDS011;6550;48.650;8.774;2023-06-22T07:33:15;7.07;;;3.50;;
12970;SDS011;6550;48.650;8.774;2023-06-22T07:35:46;9.87;;;3.97;;
12970;SDS011;6550;48.650;8.774;2023-06-22T07:38:13;7.40;;;4.30;;
12970;SDS011;6550;48.650;8.774;2023-06-22T07:40:42;5.47;;;3.90;;
12970;SDS011;6550;48.650;8.774;2023-06-22T07:43:10;8.13;;;4.17;;
12970;SDS011;6550;48.650;8.774;2023-06-22T07:45:37;8.17;;;3.90;;
12970;SDS011;6550;48.650;8.774;2023-06-22T07:48:06;8.00;;;3.70;;
12970;SDS011;6550;48.650;8.774;2023-06-22T07:50:33;5.37;;;3.90;;
12970;SDS011;6550;48.650;8.774;2023-06-22T07:53:03;7.57;;;4.40;;
12970;SDS011;6550;48.650;8.774;2023-06-22T07:55:32;6.97;;;3.97;;
12970;SDS011;6550;48.650;8.774;2023-06-22T07:58:01;8.17;;;4.07;;
12970;SDS011;6550;48.650;8.774;2023-06-22T08:00:28;6.07;;;3.80;;
12970;SDS011;6550;48.650;8.774;2023-06-22T08:02:57;8.67;;;4.13;;
12970;SDS011;6550;48.650;8.774;2023-06-22T08:05:26;6.90;;;3.60;;
12970;SDS011;6550;48.650;8.774;2023-06-22T08:07:56;11.73;;;3.97;;
12970;SDS011;6550;48.650;8.774;2023-06-22T08:10:25;7.80;;;4.00;;
12970;SDS011;6550;48.650;8.774;2023-06-22T08:12:54;6.57;;;3.63;;
12970;SDS011;6550;48.650;8.774;2023-06-22T08:15:21;7.77;;;4.07;;
12970;SDS011;6550;48.650;8.774;2023-06-22T08:17:48;7.20;;;3.80;;
12970;SDS011;6550;48.650;8.774;2023-06-22T08:20:19;7.60;;;3.80;;
12970;SDS011;6550;48.650;8.774;2023-06-22T08:22:45;7.30;;;4.10;;
12970;SDS011;6550;48.650;8.774;2023-06-22T08:25:17;8.33;;;4.03;;
12970;SDS011;6550;48.650;8.774;2023-06-22T08:27:49;6.60;;;3.83;;
12970;SDS011;6550;48.650;8.774;2023-06-22T08:30:18;10.20;;;4.23;;
12970;SDS011;6550;48.650;8.774;2023-06-22T08:32:47;8.33;;;3.90;;
12970;SDS011;6550;48.650;8.774;2023-06-22T08:35:14;7.13;;;3.60;;
12970;SDS011;6550;48.650;8.774;2023-06-22T08:37:43;9.37;;;4.20;;
12970;SDS011;6550;48.650;8.774;2023-06-22T08:40:18;8.63;;;3.63;;
12970;SDS011;6550;48.650;8.774;2023-06-22T08:42:48;7.50;;;3.67;;
12970;SDS011;6550;48.650;8.774;2023-06-22T08:45:15;8.40;;;4.13;;
12970;SDS011;6550;48.650;8.774;2023-06-22T08:47:45;10.33;;;4.20;;
12970;SDS011;6550;48.650;8.774;2023-06-22T08:50:12;11.87;;;3.80;;
12970;SDS011;6550;48.650;8.774;2023-06-22T08:52:42;12.33;;;4.20;;
12970;SDS011;6550;48.650;8.774;2023-06-22T08:55:09;7.77;;;4.27;;
12970;SDS011;6550;48.650;8.774;2023-06-22T08:57:40;8.77;;;4.10;;
12970;SDS011;6550;48.650;8.774;2023-06-22T09:00:07;11.00;;;4.10;;
12970;SDS011;6550;48.650;8.774;2023-06-22T09:02:46;8.53;;;4.47;;
12970;SDS011;6550;48.650;8.774;2023-06-22T09:05:16;10.37;;;4.60;;
12970;SDS011;6550;48.650;8.774;2023-06-22T09:07:43;7.60;;;4.47;;
12970;SDS011;6550;48.650;8.774;2023-06-22T09:10:12;5.27;;;3.43;;
12970;SDS011;6550;48.650;8.774;2023-06-22T09:12:39;5.23;;;3.80;;
12970;SDS011;6550;48.650;8.774;2023-06-22T09:15:06;14.10;;;4.77;;
12970;SDS011;6550;48.650;8.774;2023-06-22T09:17:37;4.73;;;3.63;;
12970;SDS011;6550;48.650;8.774;2023-06-22T09:20:05;9.43;;;4.40;;
12970;SDS011;6550;48.650;8.774;2023-06-22T09:22:33;10.63;;;4.63;;
12970;SDS011;6550;48.650;8.774;2023-06-22T09:25:00;14.83;;;4.93;;
12970;SDS011;6550;48.650;8.774;2023-06-22T09:27:29;10.03;;;4.40;;
12970;SDS011;6550;48.650;8.774;2023-06-22T09:29:59;10.03;;;4.17;;
12970;SDS011;6550;48.650;8.774;2023-06-22T09:32:25;9.80;;;3.80;;
12970;SDS011;6550;48.650;8.774;2023-06-22T09:34:57;8.50;;;3.70;;
12970;SDS011;6550;48.650;8.774;2023-06-22T09:37:24;6.57;;;3.93;;
12970;SDS011;6550;48.650;8.774;2023-06-22T09:39:50;12.50;;;5.10;;
12970;SDS011;6550;48.650;8.774;2023-06-22T09:42:20;7.77;;;4.23;;
12970;SDS011;6550;48.650;8.774;2023-06-22T09:44:49;8.77;;;3.57;;
12970;SDS011;6550;48.650;8.774;2023-06-22T09:47:18;9.93;;;4.17;;
12970;SDS011;6550;48.650;8.774;2023-06-22T09:49:45;9.37;;;4.23;;
12970;SDS011;6550;48.650;8.774;2023-06-22T09:52:14;9.80;;;4.33;;
12970;SDS011;6550;48.650;8.774;2023-06-22T09:54:41;11.57;;;4.03;;
12970;SDS011;6550;48.650;8.774;2023-06-22T09:57:08;7.40;;;4.00;;
12970;SDS011;6550;48.650;8.774;2023-06-22T09:59:35;14.77;;;3.83;;
12970;SDS011;6550;48.650;8.774;2023-06-22T10:02:04;8.30;;;4.27;;
12970;SDS011;6550;48.650;8.774;2023-06-22T10:04:31;7.10;;;3.77;;
12970;SDS011;6550;48.650;8.774;2023-06-22T10:06:59;13.33;;;4.93;;
12970;SDS011;6550;48.650;8.774;2023-06-22T10:09:33;8.60;;;4.30;;
12970;SDS011;6550;48.650;8.774;2023-06-22T10:11:59;7.47;;;4.17;;
12970;SDS011;6550;48.650;8.774;2023-06-22T10:14:26;10.17;;;4.20;;
12970;SDS011;6550;48.650;8.774;2023-06-22T10:16:55;10.37;;;4.30;;
12970;SDS011;6550;48.650;8.774;2023-06-22T10:19:25;10.37;;;4.07;;
12970;SDS011;6550;48.650;8.774;2023-06-22T10:21:54;9.70;;;4.03;;
12970;SDS011;6550;48.650;8.774;2023-06-22T10:24:23;10.43;;;3.83;;
12970;SDS011;6550;48.650;8.774;2023-06-22T10:26:49;9.73;;;4.17;;
12970;SDS011;6550;48.650;8.774;2023-06-22T10:29:16;20.87;;;4.20;;
12970;SDS011;6550;48.650;8.774;2023-06-22T10:31:45;9.80;;;4.40;;
12970;SDS011;6550;48.650;8.774;2023-06-22T10:34:12;17.07;;;4.67;;
12970;SDS011;6550;48.650;8.774;2023-06-22T10:36:39;9.17;;;3.90;;
12970;SDS011;6550;48.650;8.774;2023-06-22T10:39:05;10.20;;;4.33;;
12970;SDS011;6550;48.650;8.774;2023-06-22T10:41:32;5.63;;;3.67;;
12970;SDS011;6550;48.650;8.774;2023-06-22T10:43:59;8.17;;;4.07;;
12970;SDS011;6550;48.650;8.774;2023-06-22T10:46:28;10.33;;;4.77;;
12970;SDS011;6550;48.650;8.774;2023-06-22T10:48:55;9.00;;;3.40;;
12970;SDS011;6550;48.650;8.774;2023-06-22T10:51:25;10.63;;;4.07;;
12970;SDS011;6550;48.650;8.774;2023-06-22T10:53:57;10.10;;;3.73;;
12970;SDS011;6550;48.650;8.774;2023-06-22T10:56:26;9.07;;;4.00;;
12970;SDS011;6550;48.650;8.774;2023-06-22T10:58:53;8.07;;;3.90;;
12970;SDS011;6550;48.650;8.774;2023-06-22T11:01:20;10.30;;;4.13;;
12970;SDS011;6550;48.650;8.774;2023-06-22T11:04:01;8.63;;;4.03;;
12970;SDS011;6550;48.650;8.774;2023-06-22T11:06:28;11.73;;;3.90;;
12970;SDS011;6550;48.650;8.774;2023-06-22T11:08:55;13.23;;;4.70;;
12970;SDS011;6550;48.650;8.774;2023-06-22T11:11:42;8.70;;;4.80;;
12970;SDS011;6550;48.650;8.774;2023-06-22T11:14:09;18.57;;;4.93;;
12970;SDS011;6550;48.650;8.774;2023-06-22T11:16:38;12.27;;;4.40;;
12970;SDS011;6550;48.650;8.774;2023-06-22T11:19:07;9.10;;;4.43;;
12970;SDS011;6550;48.650;8.774;2023-06-22T11:21:34;7.03;;;4.10;;
12970;SDS011;6550;48.650;8.774;2023-06-22T11:24:06;9.83;;;4.27;;
12970;SDS011;6550;48.650;8.774;2023-06-22T11:26:33;9.43;;;3.80;;
12970;SDS011;6550;48.650;8.774;2023-06-22T11:29:03;9.37;;;4.10;;
12970;SDS011;6550;48.650;8.774;2023-06-22T11:31:37;11.53;;;4.60;;
12970;SDS011;6550;48.650;8.774;2023-06-22T11:34:04;8.73;;;4.17;;
12970;SDS011;6550;48.650;8.774;2023-06-22T11:36:31;9.87;;;4.10;;
12970;SDS011;6550;48.650;8.774;2023-06-22T11:38:59;9.40;;;4.30;;
12970;SDS011;6550;48.650;8.774;2023-06-22T11:41:26;10.43;;;4.10;;
12970;SDS011;6550;48.650;8.774;2023-06-22T11:43:53;8.73;;;4.53;;
12970;SDS011;6550;48.650;8.774;2023-06-22T11:46:19;11.00;;;4.33;;
12970;SDS011;6550;48.650;8.774;2023-06-22T11:48:49;12.53;;;4.80;;
12970;SDS011;6550;48.650;8.774;2023-06-22T11:51:16;10.47;;;4.57;;
12970;SDS011;6550;48.650;8.774;2023-06-22T11:53:42;8.93;;;4.80;;
12970;SDS011;6550;48.650;8.774;2023-06-22T11:56:09;10.70;;;4.60;;
12970;SDS011;6550;48.650;8.774;2023-06-22T11:58:38;13.17;;;4.63;;
12970;SDS011;6550;48.650;8.774;2023-06-22T12:01:07;7.87;;;3.90;;
12970;SDS011;6550;48.650;8.774;2023-06-22T12:03:34;12.77;;;4.80;;
12970;SDS011;6550;48.650;8.774;2023-06-22T12:06:01;5.40;;;3.83;;
12970;SDS011;6550;48.650;8.774;2023-06-22T12:08:30;8.57;;;4.50;;
12970;SDS011;6550;48.650;8.774;2023-06-22T12:10:59;9.63;;;4.60;;
12970;SDS011;6550;48.650;8.774;2023-06-22T12:13:28;14.90;;;4.80;;
12970;SDS011;6550;48.650;8.774;2023-06-22T12:15:57;10.50;;;4.30;;
12970;SDS011;6550;48.650;8.774;2023-06-22T12:18:26;7.40;;;4.03;;
12970;SDS011;6550;48.650;8.774;2023-06-22T12:20:53;7.77;;;4.67;;
12970;SDS011;6550;48.650;8.774;2023-06-22T12:23:19;11.03;;;4.73;;
12970;SDS011;6550;48.650;8.774;2023-06-22T12:25:46;9.10;;;4.57;;
12970;SDS011;6550;48.650;8.774;2023-06-22T12:28:15;8.97;;;4.40;;
12970;SDS011;6550;48.650;8.774;2023-06-22T12:30:42;10.70;;;4.70;;
12970;SDS011;6550;48.650;8.774;2023-06-22T12:33:11;10.07;;;4.67;;
12970;SDS011;6550;48.650;8.774;2023-06-22T12:35:40;8.47;;;4.00;;
12970;SDS011;6550;48.650;8.774;2023-06-22T12:38:12;7.17;;;3.93;;
12970;SDS011;6550;48.650;8.774;2023-06-22T12:40:41;12.33;;;4.50;;
12970;SDS011;6550;48.650;8.774;2023-06-22T12:43:15;9.53;;;4.33;;
12970;SDS011;6550;48.650;8.774;2023-06-22T12:45:42;7.23;;;4.13;;
12970;SDS011;6550;48.650;8.774;2023-06-22T12:48:11;8.33;;;4.10;;
12970;SDS011;6550;48.650;8.774;2023-06-22T12:50:39;6.17;;;3.90;;
12970;SDS011;6550;48.650;8.774;2023-06-22T12:53:05;9.83;;;4.70;;
12970;SDS011;6550;48.650;8.774;2023-06-22T12:55:35;23.03;;;5.77;;
12970;SDS011;6550;48.650;8.774;2023-06-22T12:58:04;10.43;;;4.53;;
12970;SDS011;6550;48.650;8.774;2023-06-22T13:00:30;12.97;;;4.80;;
12970;SDS011;6550;48.650;8.774;2023-06-22T13:02:58;14.47;;;5.03;;
12970;SDS011;6550;48.650;8.774;2023-06-22T13:05:25;11.97;;;4.47;;
12970;SDS011;6550;48.650;8.774;2023-06-22T13:07:54;8.13;;;4.50;;
12970;SDS011;6550;48.650;8.774;2023-06-22T13:10:21;12.83;;;5.00;;
12970;SDS011;6550;48.650;8.774;2023-06-22T13:12:48;19.50;;;4.53;;
12970;SDS011;6550;48.650;8.774;2023-06-22T13:15:19;9.30;;;5.17;;
12970;SDS011;6550;48.650;8.774;2023-06-22T13:17:48;13.50;;;4.90;;
12970;SDS011;6550;48.650;8.774;2023-06-22T13:20:15;9.40;;;4.50;;
12970;SDS011;6550;48.650;8.774;2023-06-22T13:22:42;12.23;;;4.50;;
12970;SDS011;6550;48.650;8.774;2023-06-22T13:25:10;9.87;;;4.60;;
12970;SDS011;6550;48.650;8.774;2023-06-22T13:27:39;14.37;;;4.50;;
12970;SDS011;6550;48.650;8.774;2023-06-22T13:30:07;14.73;;;4.77;;
12970;SDS011;6550;48.650;8.774;2023-06-22T13:32:39;14.33;;;4.50;;
12970;SDS011;6550;48.650;8.774;2023-06-22T13:35:09;14.03;;;4.53;;
12970;SDS011;6550;48.650;8.774;2023-06-22T13:37:38;7.83;;;3.97;;
12970;SDS011;6550;48.650;8.774;2023-06-22T13:40:05;11.20;;;5.10;;
12970;SDS011;6550;48.650;8.774;2023-06-22T13:42:33;8.77;;;4.83;;
12970;SDS011;6550;48.650;8.774;2023-06-22T13:45:02;8.80;;;4.10;;
12970;SDS011;6550;48.650;8.774;2023-06-22T13:47:32;11.37;;;4.33;;
12970;SDS011;6550;48.650;8.774;2023-06-22T13:49:59;10.83;;;4.40;;
12970;SDS011;6550;48.650;8.774;2023-06-22T13:52:29;16.27;;;4.20;;
12970;SDS011;6550;48.650;8.774;2023-06-22T13:54:56;9.47;;;3.70;;
12970;SDS011;6550;48.650;8.774;2023-06-22T13:57:27;11.30;;;3.80;;
12970;SDS011;6550;48.650;8.774;2023-06-22T13:59:59;12.87;;;3.70;;
12970;SDS011;6550;48.650;8.774;2023-06-22T14:02:26;14.60;;;3.83;;
12970;SDS011;6550;48.650;8.774;2023-06-22T14:04:54;7.00;;;3.17;;
12970;SDS011;6550;48.650;8.774;2023-06-22T14:07:21;16.23;;;3.50;;
12970;SDS011;6550;48.650;8.774;2023-06-22T14:09:48;13.97;;;3.70;;
12970;SDS011;6550;48.650;8.774;2023-06-22T14:12:16;10.33;;;3.03;;
12970;SDS011;6550;48.650;8.774;2023-06-22T14:14:46;16.33;;;2.93;;
12970;SDS011;6550;48.650;8.774;2023-06-22T14:17:13;14.13;;;3.33;;
12970;SDS011;6550;48.650;8.774;2023-06-22T14:19:42;10.80;;;2.77;;
12970;SDS011;6550;48.650;8.774;2023-06-22T14:22:11;13.87;;;3.20;;
12970;SDS011;6550;48.650;8.774;2023-06-22T14:24:38;10.80;;;3.37;;
12970;SDS011;6550;48.650;8.774;2023-06-22T14:27:04;12.43;;;3.13;;
12970;SDS011;6550;48.650;8.774;2023-06-22T14:29:36;8.63;;;3.10;;
12970;SDS011;6550;48.650;8.774;2023-06-22T14:32:03;13.73;;;2.80;;
12970;SDS011;6550;48.650;8.774;2023-06-22T14:34:35;16.57;;;3.53;;
12970;SDS011;6550;48.650;8.774;2023-06-22T14:37:08;8.10;;;2.70;;
12970;SDS011;6550;48.650;8.774;2023-06-22T14:39:36;7.40;;;2.60;;
12970;SDS011;6550;48.650;8.774;2023-06-22T14:42:05;15.97;;;2.90;;
12970;SDS011;6550;48.650;8.774;2023-06-22T14:44:32;11.90;;;3.07;;
12970;SDS011;6550;48.650;8.774;2023-06-22T14:47:01;12.67;;;2.87;;
12970;SDS011;6550;48.650;8.774;2023-06-22T14:49:30;10.50;;;3.40;;
12970;SDS011;6550;48.650;8.774;2023-06-22T14:51:57;12.60;;;3.20;;
12970;SDS011;6550;48.650;8.774;2023-06-22T14:54:24;8.73;;;2.70;;
12970;SDS011;6550;48.650;8.774;2023-06-22T14:56:53;9.00;;;3.07;;
12970;SDS011;6550;48.650;8.774;2023-06-22T14:59:19;12.13;;;2.80;;
12970;SDS011;6550;48.650;8.774;2023-06-22T15:01:48;8.90;;;2.93;;
12970;SDS011;6550;48.650;8.774;2023-06-22T15:04:15;10.47;;;3.00;;
12970;SDS011;6550;48.650;8.774;2023-06-22T15:06:44;10.53;;;3.23;;
12970;SDS011;6550;48.650;8.774;2023-06-22T15:09:14;12.70;;;3.10;;
12970;SDS011;6550;48.650;8.774;2023-06-22T15:11:41;14.63;;;2.87;;